Time;durP1;ratioP1;P1;durP2;ratioP2;P2;SDS_P1;SDS_P2;PMS_P1;PMS_P2;Temp;Humidity;BMP_temperature;BMP_pressure;BME280_temperature;BME280_humidity;BME280_pressure;Samples;Min_cycle;Max_cycle;Signal;HPM_P1;HPM_P2
2023/05/01 00:00:48;;;;;;;1.35;0.80;;;14.70;99.90;;;;;;5115559;28;20035;-79
2023/05/01 00:03:16;;;;;;;2.70;1.40;;;14.70;99.90;;;;;;5096328;28;20016;-78
2023/05/01 00:05:43;;;;;;;2.58;1.95;;;14.70;99.90;;;;;;5114885;28;20168;-77
2023/05/01 00:08:09;;;;;;;4.75;1.80;;;14.70;99.90;;;;;;5114235;28;20510;-78
2023/05/01 00:10:35;;;;;;;3.13;1.50;;;14.70;99.90;;;;;;5115698;28;20038;-78
2023/05/01 00:13:01;;;;;;;2.75;1.30;;;14.60;99.90;;;;;;5114472;28;20055;-78
2023/05/01 00:15:26;;;;;;;2.63;1.42;;;14.60;99.90;;;;;;5114887;28;20039;-78
2023/05/01 00:17:53;;;;;;;3.60;1.20;;;14.70;99.90;;;;;;5114329;28;20054;-78
2023/05/01 00:20:19;;;;;;;4.22;1.00;;;14.60;99.90;;;;;;5114512;28;20028;-78
2023/05/01 00:22:45;;;;;;;1.88;1.00;;;14.60;99.90;;;;;;5115036;28;20032;-79
2023/05/01 00:25:10;;;;;;;1.50;0.88;;;14.60;99.90;;;;;;5114329;28;20490;-79
2023/05/01 00:27:36;;;;;;;2.72;1.00;;;14.60;99.90;;;;;;5114745;28;20039;-79
2023/05/01 00:30:02;;;;;;;2.20;1.00;;;14.70;99.90;;;;;;5115021;28;20102;-79
2023/05/01 00:32:28;;;;;;;3.10;1.25;;;14.70;99.90;;;;;;5113886;28;20502;-79
2023/05/01 00:34:56;;;;;;;4.03;1.40;;;14.70;99.90;;;;;;5113643;28;20028;-79
2023/05/01 00:37:22;;;;;;;3.72;1.30;;;14.70;99.90;;;;;;5096508;28;20040;-80
2023/05/01 00:39:48;;;;;;;2.35;1.10;;;14.60;99.90;;;;;;5114663;28;20081;-80
2023/05/01 00:42:14;;;;;;;3.78;1.25;;;14.60;99.90;;;;;;5095676;28;20028;-79
2023/05/01 00:44:39;;;;;;;4.03;1.30;;;14.40;99.90;;;;;;5113915;28;20024;-80
2023/05/01 00:47:05;;;;;;;2.97;1.50;;;14.50;99.90;;;;;;5114064;28;20024;-80
2023/05/01 00:49:32;;;;;;;3.47;1.23;;;14.50;99.90;;;;;;5113479;28;20036;-80
2023/05/01 00:51:58;;;;;;;3.90;1.42;;;14.50;99.90;;;;;;5114129;28;20069;-79
2023/05/01 00:54:26;;;;;;;3.67;1.30;;;14.50;99.90;;;;;;5113991;28;20428;-80
2023/05/01 00:56:52;;;;;;;2.65;1.25;;;14.50;99.90;;;;;;5113877;28;20047;-79
2023/05/01 00:59:17;;;;;;;2.58;1.20;;;14.40;99.90;;;;;;5114511;28;20408;-78
2023/05/01 01:01:43;;;;;;;2.70;1.50;;;14.40;99.90;;;;;;5113910;28;20035;-79
2023/05/01 01:04:09;;;;;;;5.65;1.30;;;14.40;99.90;;;;;;5094646;28;20015;-78
2023/05/01 01:06:53;;;;;;;3.13;1.33;;;14.50;99.90;;;;;;5095354;28;20092;-79
2023/05/01 01:09:31;;;;;;;4.03;1.30;;;14.50;99.90;;;;;;5114188;28;20058;-80
2023/05/01 01:12:12;;;;;;;5.65;1.58;;;14.40;99.90;;;;;;5113555;28;20051;-79
2023/05/01 01:14:57;;;;;;;4.03;1.70;;;14.50;99.90;;;;;;5114187;28;20088;-79
2023/05/01 01:17:55;;;;;;;3.50;1.70;;;14.50;99.90;;;;;;5113249;28;20051;-79
2023/05/01 01:20:43;;;;;;;5.45;1.65;;;14.50;99.90;;;;;;5113344;28;20076;-80
2023/05/01 01:23:27;;;;;;;3.53;1.40;;;14.50;99.90;;;;;;5113104;28;20027;-80
2023/05/01 01:26:11;;;;;;;2.92;1.38;;;14.60;99.90;;;;;;5113823;28;20035;-79
2023/05/01 01:29:01;;;;;;;3.45;1.23;;;14.60;99.90;;;;;;5113469;28;20023;-79
2023/05/01 01:32:01;;;;;;;1.70;1.00;;;14.50;99.90;;;;;;5113455;28;20042;-78
2023/05/01 01:34:46;;;;;;;3.95;1.10;;;14.50;99.90;;;;;;5113522;28;20028;-79
2023/05/01 01:37:38;;;;;;;2.17;1.40;;;14.50;99.90;;;;;;5112799;28;20412;-78
2023/05/01 01:40:11;;;;;;;3.55;1.40;;;14.50;99.90;;;;;;5104918;28;20032;-79
2023/05/01 01:42:41;;;;;;;3.17;1.20;;;14.50;99.90;;;;;;5113224;28;20499;-79
2023/05/01 01:45:39;;;;;;;2.78;1.20;;;14.60;99.90;;;;;;5112825;28;20028;-79
2023/05/01 01:48:11;;;;;;;2.20;1.20;;;14.50;99.90;;;;;;5100515;28;20062;-78
2023/05/01 01:50:38;;;;;;;3.33;1.33;;;14.50;99.90;;;;;;5112908;28;20488;-78
2023/05/01 01:53:07;;;;;;;2.90;1.33;;;14.50;99.90;;;;;;5112867;28;20504;-78
2023/05/01 01:55:35;;;;;;;3.40;1.30;;;14.50;99.90;;;;;;5112748;28;20043;-78
2023/05/01 01:58:04;;;;;;;2.83;1.40;;;14.50;99.90;;;;;;5112660;28;20031;-78
2023/05/01 02:00:30;;;;;;;3.35;1.55;;;14.50;99.90;;;;;;5112350;28;20106;-78
2023/05/01 02:02:58;;;;;;;4.95;1.50;;;14.50;99.90;;;;;;5113047;28;20016;-77
2023/05/01 02:05:25;;;;;;;3.92;1.83;;;14.50;99.90;;;;;;5112789;28;20046;-78
2023/05/01 02:07:51;;;;;;;2.60;1.33;;;14.50;99.90;;;;;;5112083;28;20023;-78
2023/05/01 02:10:19;;;;;;;4.63;1.58;;;14.40;99.90;;;;;;5112457;28;20028;-77
2023/05/01 02:12:46;;;;;;;5.72;1.55;;;14.30;99.90;;;;;;5112565;28;20559;-78
2023/05/01 02:15:15;;;;;;;3.42;1.20;;;14.30;99.90;;;;;;5112244;28;20019;-78
2023/05/01 02:17:41;;;;;;;3.10;1.30;;;14.40;99.90;;;;;;5112250;28;20031;-78
2023/05/01 02:20:09;;;;;;;2.97;1.30;;;14.40;99.90;;;;;;5112706;28;20052;-78
2023/05/01 02:22:35;;;;;;;4.15;1.30;;;14.40;99.90;;;;;;5112079;28;20027;-78
2023/05/01 02:25:02;;;;;;;2.40;1.40;;;14.40;99.90;;;;;;5112725;28;20069;-77
2023/05/01 02:27:35;;;;;;;2.10;1.20;;;14.40;99.90;;;;;;5112101;28;20118;-78
2023/05/01 02:30:00;;;;;;;2.28;1.30;;;14.40;99.90;;;;;;5112169;28;20043;-77
2023/05/01 02:32:27;;;;;;;2.78;1.33;;;14.30;99.90;;;;;;5111067;28;20488;-78
2023/05/01 02:34:53;;;;;;;2.95;1.30;;;14.30;99.90;;;;;;5112175;28;20059;-78
2023/05/01 02:37:19;;;;;;;3.40;1.30;;;14.40;99.90;;;;;;5111952;28;20023;-77
2023/05/01 02:39:45;;;;;;;3.60;1.58;;;14.40;99.90;;;;;;5111941;28;20027;-78
2023/05/01 02:42:14;;;;;;;2.25;1.30;;;14.40;99.90;;;;;;5111507;28;20396;-78
2023/05/01 02:44:47;;;;;;;4.53;1.38;;;14.40;99.90;;;;;;5111767;28;20103;-78
2023/05/01 02:47:17;;;;;;;2.88;1.48;;;14.40;99.90;;;;;;5112226;28;20028;-77
2023/05/01 02:49:43;;;;;;;4.13;1.60;;;14.40;99.90;;;;;;5112471;28;20029;-78
2023/05/01 02:52:11;;;;;;;4.43;1.60;;;14.40;99.90;;;;;;5111626;28;20396;-77
2023/05/01 02:54:37;;;;;;;5.18;1.88;;;14.40;99.90;;;;;;5112224;28;20032;-77
2023/05/01 02:57:04;;;;;;;4.78;1.80;;;14.40;99.90;;;;;;5111717;28;20088;-77
2023/05/01 02:59:30;;;;;;;5.40;1.80;;;14.50;99.90;;;;;;5111884;28;20031;-78
2023/05/01 03:01:56;;;;;;;5.70;1.63;;;14.40;99.90;;;;;;5112495;28;20016;-78
2023/05/01 03:04:21;;;;;;;4.57;2.03;;;14.40;99.90;;;;;;5112283;28;20416;-78
2023/05/01 03:06:47;;;;;;;7.07;2.10;;;14.40;99.90;;;;;;5093382;28;20024;-78
2023/05/01 03:09:13;;;;;;;3.20;1.70;;;14.30;99.90;;;;;;5112276;28;20046;-77
2023/05/01 03:11:38;;;;;;;4.25;1.90;;;14.30;99.90;;;;;;5111353;28;20031;-77
2023/05/01 03:14:04;;;;;;;4.72;2.00;;;14.30;99.90;;;;;;5111990;28;20036;-78
2023/05/01 03:16:30;;;;;;;6.72;2.00;;;14.30;99.90;;;;;;5111588;28;20043;-78
2023/05/01 03:18:56;;;;;;;4.18;1.77;;;14.30;99.90;;;;;;5111343;28;20396;-78
2023/05/01 03:21:21;;;;;;;4.13;1.80;;;14.30;99.90;;;;;;5111500;28;20032;-77
2023/05/01 03:23:47;;;;;;;5.53;1.70;;;14.30;99.90;;;;;;5111643;28;20028;-78
2023/05/01 03:26:13;;;;;;;2.50;1.60;;;14.30;99.90;;;;;;5111450;28;20369;-78
2023/05/01 03:28:39;;;;;;;3.47;1.50;;;14.30;99.90;;;;;;5112002;28;20031;-77
2023/05/01 03:31:05;;;;;;;4.40;1.38;;;14.30;99.90;;;;;;5111421;28;20503;-78
2023/05/01 03:33:31;;;;;;;3.33;1.65;;;14.40;99.90;;;;;;5111751;28;20107;-77
2023/05/01 03:36:02;;;;;;;2.58;1.40;;;14.40;99.90;;;;;;5111310;28;20044;-78
2023/05/01 03:38:29;;;;;;;2.35;1.27;;;14.40;99.90;;;;;;5111919;28;20020;-78
2023/05/01 03:40:55;;;;;;;2.80;1.33;;;14.40;99.90;;;;;;5111772;28;20039;-78
2023/05/01 03:43:21;;;;;;;2.20;1.48;;;14.40;99.90;;;;;;5112951;28;20047;-77
2023/05/01 03:45:46;;;;;;;2.88;1.40;;;14.40;99.90;;;;;;5115387;28;20658;-78
2023/05/01 03:48:13;;;;;;;3.78;1.52;;;14.30;99.90;;;;;;5115223;28;20107;-79
2023/05/01 03:50:38;;;;;;;4.18;1.85;;;14.40;99.90;;;;;;5115266;28;20087;-78
2023/05/01 03:53:04;;;;;;;4.40;1.60;;;14.40;99.90;;;;;;5115582;28;20417;-78
2023/05/01 03:55:30;;;;;;;3.75;1.60;;;14.40;99.90;;;;;;5114994;28;20544;-78
2023/05/01 03:57:55;;;;;;;3.38;1.65;;;14.40;99.90;;;;;;5115173;28;20063;-78
2023/05/01 04:00:21;;;;;;;4.85;2.03;;;14.50;99.90;;;;;;5115127;28;20031;-78
2023/05/01 04:02:47;;;;;;;4.28;1.70;;;14.50;99.90;;;;;;5115219;28;20051;-78
2023/05/01 04:05:13;;;;;;;4.07;1.90;;;14.40;99.90;;;;;;5115520;28;20388;-78
2023/05/01 04:07:40;;;;;;;3.55;1.70;;;14.40;99.90;;;;;;5115198;28;20028;-78
2023/05/01 04:10:08;;;;;;;6.82;1.70;;;14.30;99.90;;;;;;5114735;28;20107;-77
2023/05/01 04:12:34;;;;;;;4.63;1.65;;;14.30;99.90;;;;;;5114289;28;20170;-78
2023/05/01 04:15:00;;;;;;;7.03;1.85;;;14.30;99.90;;;;;;5114585;28;20404;-78
2023/05/01 04:17:26;;;;;;;3.92;1.70;;;14.30;99.90;;;;;;5114985;28;20024;-78
2023/05/01 04:19:53;;;;;;;3.15;1.98;;;14.30;99.90;;;;;;5114617;28;20020;-79
2023/05/01 04:22:20;;;;;;;4.82;1.90;;;14.20;99.90;;;;;;5114484;28;20039;-78
2023/05/01 04:24:45;;;;;;;3.35;1.67;;;14.20;99.90;;;;;;5115235;28;20016;-78
2023/05/01 04:27:11;;;;;;;5.25;1.80;;;14.30;99.90;;;;;;5114133;28;20482;-78
2023/05/01 04:29:37;;;;;;;4.00;1.90;;;14.30;99.90;;;;;;5115026;28;20103;-78
2023/05/01 04:32:02;;;;;;;2.50;1.60;;;14.30;99.90;;;;;;5114848;28;20055;-78
2023/05/01 04:34:28;;;;;;;4.15;1.70;;;14.30;99.90;;;;;;5114883;28;20024;-78
2023/05/01 04:36:56;;;;;;;6.63;1.90;;;14.30;99.90;;;;;;5114415;28;20039;-78
2023/05/01 04:39:22;;;;;;;6.07;1.80;;;14.30;99.90;;;;;;5114620;28;20019;-78
2023/05/01 04:41:48;;;;;;;3.60;1.50;;;14.40;99.90;;;;;;5114201;28;20027;-78
2023/05/01 04:44:14;;;;;;;6.57;1.80;;;14.40;99.90;;;;;;5114413;28;20027;-79
2023/05/01 04:46:40;;;;;;;4.60;1.63;;;14.40;99.90;;;;;;5114072;28;20032;-78
2023/05/01 04:49:06;;;;;;;4.22;1.83;;;14.40;99.90;;;;;;5114623;28;20019;-77
2023/05/01 04:51:32;;;;;;;4.57;1.70;;;14.40;99.90;;;;;;5113842;28;20035;-78
2023/05/01 04:53:57;;;;;;;5.55;1.83;;;14.40;99.90;;;;;;5113778;28;20026;-78
2023/05/01 04:56:24;;;;;;;5.45;1.75;;;14.30;99.90;;;;;;5112620;28;20051;-77
2023/05/01 04:58:50;;;;;;;4.75;1.77;;;14.30;99.90;;;;;;5095173;28;20092;-78
2023/05/01 05:01:16;;;;;;;5.47;1.75;;;14.30;99.90;;;;;;5113696;28;20090;-78
2023/05/01 05:03:42;;;;;;;2.83;1.67;;;14.30;99.90;;;;;;5113980;28;20027;-78
2023/05/01 05:06:08;;;;;;;3.67;1.92;;;14.30;99.90;;;;;;5113446;28;20038;-77
2023/05/01 05:08:33;;;;;;;4.82;1.90;;;14.30;99.90;;;;;;5112982;28;20069;-78
2023/05/01 05:11:00;;;;;;;5.68;2.25;;;14.30;99.90;;;;;;5113460;28;20027;-77
2023/05/01 05:13:26;;;;;;;4.13;2.25;;;14.30;99.90;;;;;;5113982;28;20052;-78
2023/05/01 05:15:52;;;;;;;3.35;2.00;;;14.30;99.90;;;;;;5112993;28;20408;-78
2023/05/01 05:18:18;;;;;;;3.30;1.80;;;14.40;99.90;;;;;;5113681;28;20020;-78
2023/05/01 05:20:44;;;;;;;2.97;1.80;;;14.40;99.90;;;;;;5113671;28;20027;-78
2023/05/01 05:23:10;;;;;;;2.85;1.80;;;14.40;99.90;;;;;;5113510;28;20015;-77
2023/05/01 05:25:36;;;;;;;3.17;1.80;;;14.40;99.90;;;;;;5112580;28;20022;-78
2023/05/01 05:28:02;;;;;;;1.88;1.60;;;14.30;99.90;;;;;;5113431;28;20027;-78
2023/05/01 05:30:28;;;;;;;2.45;1.60;;;14.40;99.90;;;;;;5113450;28;20513;-78
2023/05/01 05:32:54;;;;;;;3.25;1.75;;;14.40;99.90;;;;;;5112920;28;20020;-78
2023/05/01 05:35:20;;;;;;;3.28;1.98;;;14.40;99.90;;;;;;5112914;28;20028;-78
2023/05/01 05:37:46;;;;;;;3.13;1.85;;;14.40;99.90;;;;;;5112662;28;20519;-78
2023/05/01 05:40:12;;;;;;;2.78;2.00;;;14.40;99.90;;;;;;5113174;28;20100;-78
2023/05/01 05:42:37;;;;;;;4.72;2.00;;;14.50;99.90;;;;;;5113056;28;20112;-78
2023/05/01 05:45:04;;;;;;;4.57;2.33;;;14.50;99.90;;;;;;5094548;28;20039;-79
2023/05/01 05:47:29;;;;;;;4.88;2.20;;;14.40;99.90;;;;;;5112996;28;20024;-78
2023/05/01 05:49:55;;;;;;;4.55;2.50;;;14.50;99.90;;;;;;5112695;28;20504;-78
2023/05/01 05:52:21;;;;;;;2.95;2.35;;;14.50;99.90;;;;;;5094067;28;20395;-78
2023/05/01 05:54:46;;;;;;;3.63;2.13;;;14.50;99.90;;;;;;5112794;28;20093;-79
2023/05/01 05:57:12;;;;;;;5.28;2.20;;;14.50;99.90;;;;;;5112421;28;20039;-78
2023/05/01 05:59:38;;;;;;;6.43;2.30;;;14.50;99.90;;;;;;5112437;28;20075;-78
2023/05/01 06:02:03;;;;;;;4.47;2.45;;;14.40;99.90;;;;;;5112831;28;20055;-78
2023/05/01 06:04:29;;;;;;;5.47;2.22;;;14.30;99.90;;;;;;5112724;28;20035;-78
2023/05/01 06:06:56;;;;;;;5.15;2.28;;;14.30;99.90;;;;;;5112114;28;20020;-77
2023/05/01 06:09:22;;;;;;;3.42;2.08;;;14.30;99.90;;;;;;5112512;28;20042;-78
2023/05/01 06:11:48;;;;;;;5.63;2.53;;;14.30;99.90;;;;;;5112270;28;20055;-80
2023/05/01 06:14:15;;;;;;;7.32;2.50;;;14.40;99.90;;;;;;5112584;28;20147;-78
2023/05/01 06:16:41;;;;;;;4.65;2.38;;;14.40;99.90;;;;;;5094756;28;20042;-78
2023/05/01 06:19:09;;;;;;;5.13;2.83;;;14.40;99.90;;;;;;5112250;28;20023;-78
2023/05/01 06:21:35;;;;;;;4.32;2.40;;;14.40;99.90;;;;;;5112281;28;20035;-78
2023/05/01 06:24:00;;;;;;;6.50;2.38;;;14.40;99.90;;;;;;5114277;28;20031;-78
2023/05/01 06:26:27;;;;;;;5.22;2.70;;;14.40;99.90;;;;;;5114836;28;20157;-78
2023/05/01 06:28:53;;;;;;;5.82;2.30;;;14.40;99.90;;;;;;5112085;28;20051;-81
2023/05/01 06:31:19;;;;;;;5.13;2.25;;;14.40;99.90;;;;;;5111951;28;20035;-78
2023/05/01 06:33:45;;;;;;;6.00;2.30;;;14.40;99.90;;;;;;5111685;28;20107;-80
2023/05/01 06:36:11;;;;;;;6.68;2.70;;;14.40;99.90;;;;;;5111841;28;20043;-81
2023/05/01 06:38:36;;;;;;;7.45;2.70;;;14.40;99.90;;;;;;5112033;28;20027;-79
2023/05/01 06:41:04;;;;;;;7.40;2.60;;;14.40;99.90;;;;;;5111894;28;20024;-80
2023/05/01 06:43:30;;;;;;;6.45;2.50;;;14.50;99.90;;;;;;5111960;28;20107;-79
2023/05/01 06:45:56;;;;;;;10.32;2.90;;;14.50;99.90;;;;;;5112240;28;20099;-81
2023/05/01 06:48:22;;;;;;;7.80;2.72;;;14.50;99.90;;;;;;5112396;28;20843;-79
2023/05/01 06:50:48;;;;;;;6.22;2.38;;;14.50;99.90;;;;;;5111620;28;20088;-80
2023/05/01 06:53:13;;;;;;;7.32;2.55;;;14.60;99.90;;;;;;5111530;28;20019;-80
2023/05/01 06:55:39;;;;;;;5.10;2.25;;;14.60;99.90;;;;;;5111712;28;20050;-79
2023/05/01 06:58:05;;;;;;;8.00;2.53;;;14.60;99.90;;;;;;5112281;28;20024;-77
2023/05/01 07:00:32;;;;;;;6.97;2.67;;;14.60;99.90;;;;;;5111669;28;20370;-80
2023/05/01 07:02:58;;;;;;;5.63;2.35;;;14.60;99.90;;;;;;5111961;28;20047;-80
2023/05/01 07:05:24;;;;;;;7.90;2.50;;;14.70;99.90;;;;;;5112169;28;20532;-79
2023/05/01 07:07:49;;;;;;;6.40;2.40;;;14.70;99.90;;;;;;5111806;28;20024;-79
2023/05/01 07:10:15;;;;;;;6.50;2.42;;;14.70;99.90;;;;;;5111532;28;20046;-78
2023/05/01 07:12:41;;;;;;;6.30;2.53;;;14.70;99.90;;;;;;5111356;28;20407;-79
2023/05/01 07:15:07;;;;;;;5.32;2.20;;;14.80;99.90;;;;;;5111710;28;20032;-80
2023/05/01 07:17:33;;;;;;;3.85;2.10;;;14.80;99.90;;;;;;5111526;28;20068;-78
2023/05/01 07:20:00;;;;;;;3.78;1.92;;;14.80;99.90;;;;;;5115213;28;20031;-78
2023/05/01 07:22:27;;;;;;;4.53;2.03;;;14.80;99.90;;;;;;5115280;28;20023;-78
2023/05/01 07:24:53;;;;;;;6.57;2.03;;;14.80;99.90;;;;;;5115524;28;20157;-79
2023/05/01 07:27:19;;;;;;;5.00;2.13;;;14.80;99.90;;;;;;5115421;28;20634;-78
2023/05/01 07:29:45;;;;;;;8.32;2.40;;;14.80;99.90;;;;;;5115321;28;20057;-78
2023/05/01 07:32:10;;;;;;;6.45;2.22;;;14.80;99.90;;;;;;5115848;28;20024;-77
2023/05/01 07:34:36;;;;;;;5.20;2.38;;;14.80;99.90;;;;;;5115522;28;20032;-78
2023/05/01 07:37:03;;;;;;;4.63;2.30;;;14.80;99.90;;;;;;5115931;28;20509;-79
2023/05/01 07:39:30;;;;;;;9.38;2.67;;;14.80;99.90;;;;;;5115848;28;20022;-79
2023/05/01 07:41:58;;;;;;;5.25;2.35;;;14.80;99.90;;;;;;5116285;28;20110;-79
2023/05/01 07:44:24;;;;;;;7.93;2.60;;;14.70;99.90;;;;;;5115533;28;20015;-79
2023/05/01 07:46:49;;;;;;;7.78;2.45;;;14.80;99.90;;;;;;5114752;28;20028;-79
2023/05/01 07:49:15;;;;;;;6.70;2.20;;;14.80;99.90;;;;;;5114774;28;20028;-79
2023/05/01 07:51:41;;;;;;;5.72;2.10;;;14.90;99.90;;;;;;5115151;28;20098;-77
2023/05/01 07:54:07;;;;;;;6.03;2.33;;;14.90;99.90;;;;;;5115376;28;20058;-78
2023/05/01 07:56:33;;;;;;;8.50;2.40;;;14.90;99.90;;;;;;5115137;28;20038;-77
2023/05/01 07:58:59;;;;;;;6.55;2.15;;;14.90;99.90;;;;;;5115138;28;20072;-78
2023/05/01 08:01:25;;;;;;;7.03;2.25;;;14.90;99.90;;;;;;5115076;28;20031;-79
2023/05/01 08:03:50;;;;;;;4.13;1.85;;;15.00;99.90;;;;;;5114675;28;20023;-79
2023/05/01 08:06:16;;;;;;;5.07;1.90;;;14.90;99.90;;;;;;5114894;28;20034;-79
2023/05/01 08:08:42;;;;;;;6.13;2.20;;;14.90;99.90;;;;;;5115688;28;20365;-78
2023/05/01 08:11:08;;;;;;;3.25;1.92;;;14.90;99.90;;;;;;5114600;28;20035;-79
2023/05/01 08:13:33;;;;;;;4.25;1.85;;;15.00;99.90;;;;;;5114791;28;20040;-78
2023/05/01 08:16:03;;;;;;;3.75;1.90;;;14.90;99.90;;;;;;5114749;28;20518;-79
2023/05/01 08:18:29;;;;;;;5.85;2.20;;;14.90;99.90;;;;;;5114217;28;20106;-79
2023/05/01 08:20:55;;;;;;;4.15;2.00;;;14.90;99.90;;;;;;5114796;28;20395;-79
2023/05/01 08:23:20;;;;;;;8.35;2.25;;;14.90;99.90;;;;;;5114829;28;20028;-79
2023/05/01 08:25:49;;;;;;;7.43;2.40;;;15.00;99.90;;;;;;5115142;28;20057;-79
2023/05/01 08:28:15;;;;;;;7.18;2.42;;;15.00;99.90;;;;;;5114960;28;20023;-79
2023/05/01 08:30:41;;;;;;;8.35;3.00;;;15.00;99.90;;;;;;5113097;28;20556;-78
2023/05/01 08:33:07;;;;;;;7.05;2.60;;;15.00;99.90;;;;;;5113674;28;20032;-79
2023/05/01 08:35:33;;;;;;;8.07;2.80;;;15.00;99.90;;;;;;5114301;28;20039;-80
2023/05/01 08:38:00;;;;;;;7.88;2.33;;;15.00;99.90;;;;;;5114804;28;20024;-79
2023/05/01 08:40:26;;;;;;;7.85;2.25;;;15.00;99.90;;;;;;5114231;28;20081;-79
2023/05/01 08:42:53;;;;;;;6.53;2.20;;;15.00;99.90;;;;;;5114199;28;20051;-80
2023/05/01 08:45:20;;;;;;;6.78;2.53;;;15.00;99.90;;;;;;5114024;28;20023;-79
2023/05/01 08:47:48;;;;;;;5.68;1.92;;;15.00;99.90;;;;;;5113822;28;20067;-79
2023/05/01 08:50:16;;;;;;;5.93;2.17;;;14.90;99.90;;;;;;5114034;28;20047;-79
2023/05/01 08:52:42;;;;;;;3.78;1.90;;;14.90;99.90;;;;;;5114373;28;20023;-80
2023/05/01 08:55:13;;;;;;;6.90;1.95;;;14.90;99.90;;;;;;5115960;28;20495;-79
2023/05/01 08:57:44;;;;;;;6.47;2.05;;;15.00;99.90;;;;;;5114844;28;20035;-79
2023/05/01 09:00:19;;;;;;;7.68;2.20;;;15.00;99.90;;;;;;5095804;28;20072;-79
2023/05/01 09:02:49;;;;;;;6.00;2.33;;;15.00;99.90;;;;;;5113426;28;20031;-80
2023/05/01 09:05:16;;;;;;;7.30;1.90;;;15.10;99.90;;;;;;5113920;28;20078;-79
2023/05/01 09:07:43;;;;;;;4.65;2.03;;;15.10;99.90;;;;;;5113450;28;20408;-79
2023/05/01 09:10:11;;;;;;;4.15;2.15;;;15.10;99.90;;;;;;5113294;28;20023;-79
2023/05/01 09:12:38;;;;;;;5.63;2.00;;;15.20;99.90;;;;;;5113273;28;20061;-80
2023/05/01 09:15:06;;;;;;;6.03;2.00;;;15.20;99.90;;;;;;5113584;28;20038;-79
2023/05/01 09:17:32;;;;;;;3.60;2.10;;;15.30;99.90;;;;;;5113233;28;20027;-79
2023/05/01 09:20:00;;;;;;;3.80;1.95;;;15.30;99.90;;;;;;5113769;28;20027;-80
2023/05/01 09:22:26;;;;;;;6.85;2.20;;;15.30;99.90;;;;;;5113453;28;20028;-79
2023/05/01 09:24:52;;;;;;;6.53;2.05;;;15.40;99.90;;;;;;5113178;28;20047;-79
2023/05/01 09:27:18;;;;;;;4.38;2.03;;;15.40;99.90;;;;;;5113513;28;20399;-80
2023/05/01 09:29:45;;;;;;;5.30;1.90;;;15.40;99.90;;;;;;5113385;28;20035;-80
2023/05/01 09:32:19;;;;;;;4.70;2.20;;;15.40;99.90;;;;;;5112813;28;20031;-79
2023/05/01 09:34:47;;;;;;;6.05;1.73;;;15.40;99.90;;;;;;5113343;28;20058;-79
2023/05/01 09:37:26;;;;;;;3.85;1.70;;;15.40;99.90;;;;;;5113625;28;20043;-79
2023/05/01 09:40:03;;;;;;;5.18;1.75;;;15.40;99.90;;;;;;5113691;28;20024;-79
2023/05/01 09:42:32;;;;;;;6.60;1.90;;;15.30;99.90;;;;;;5112658;28;20023;-79
2023/05/01 09:44:59;;;;;;;6.30;1.88;;;15.40;99.90;;;;;;5113114;28;20396;-79
2023/05/01 09:47:28;;;;;;;6.55;2.03;;;15.40;99.90;;;;;;5113093;28;20019;-79
2023/05/01 09:49:56;;;;;;;6.18;1.90;;;15.50;99.90;;;;;;5113106;28;20031;-79
2023/05/01 09:52:25;;;;;;;5.35;2.03;;;15.60;99.90;;;;;;5112961;27;20027;-78
2023/05/01 09:55:11;;;;;;;6.50;2.25;;;15.60;99.90;;;;;;5112754;28;20119;-79
2023/05/01 09:57:37;;;;;;;6.43;2.30;;;15.60;99.90;;;;;;5112791;28;20038;-80
2023/05/01 10:00:07;;;;;;;5.43;2.10;;;15.70;99.90;;;;;;5112448;28;20496;-79
2023/05/01 10:02:32;;;;;;;5.32;1.90;;;15.70;99.90;;;;;;5112815;28;20559;-79
2023/05/01 10:04:59;;;;;;;5.43;1.90;;;15.90;99.90;;;;;;5113010;28;20106;-79
2023/05/01 10:07:25;;;;;;;4.93;1.92;;;15.80;99.90;;;;;;5113027;28;20569;-79
2023/05/01 10:09:51;;;;;;;7.00;2.17;;;15.80;99.90;;;;;;5112843;28;20023;-80
2023/05/01 10:12:27;;;;;;;6.72;2.30;;;15.90;99.90;;;;;;5112082;28;20401;-79
2023/05/01 10:14:55;;;;;;;7.07;2.33;;;15.90;99.90;;;;;;5112190;28;20460;-79
2023/05/01 10:17:21;;;;;;;7.22;2.75;;;15.90;99.90;;;;;;5112234;28;20024;-78
2023/05/01 10:19:48;;;;;;;5.60;2.60;;;15.90;99.90;;;;;;5112380;28;20097;-79
2023/05/01 10:22:15;;;;;;;11.40;2.65;;;16.00;99.90;;;;;;5112237;28;20028;-79
2023/05/01 10:24:42;;;;;;;8.10;2.80;;;16.00;99.90;;;;;;5112593;28;20020;-79
2023/05/01 10:27:09;;;;;;;8.18;2.88;;;15.90;99.90;;;;;;5112426;28;20373;-79
2023/05/01 10:29:36;;;;;;;6.80;2.20;;;16.00;99.90;;;;;;5111709;28;20036;-80
2023/05/01 10:32:03;;;;;;;9.63;2.53;;;16.00;99.90;;;;;;5112780;28;20517;-79
2023/05/01 10:34:32;;;;;;;7.90;2.47;;;15.90;99.90;;;;;;5111888;28;20110;-79
2023/05/01 10:37:05;;;;;;;10.35;2.75;;;15.90;99.90;;;;;;5111809;28;20036;-79
2023/05/01 10:39:37;;;;;;;9.02;2.80;;;15.80;99.90;;;;;;5111884;28;20035;-80
2023/05/01 10:42:05;;;;;;;6.95;2.25;;;15.80;99.90;;;;;;5112031;28;20035;-77
2023/05/01 10:44:33;;;;;;;8.40;2.70;;;15.80;99.90;;;;;;5112211;28;20016;-79
2023/05/01 10:46:59;;;;;;;7.03;2.70;;;15.80;99.90;;;;;;5111832;28;20129;-79
2023/05/01 10:49:44;;;;;;;8.05;2.53;;;15.70;99.90;;;;;;5111879;28;20122;-79
2023/05/01 10:52:10;;;;;;;11.35;3.20;;;15.70;99.90;;;;;;5111121;28;20511;-79
2023/05/01 10:54:36;;;;;;;11.65;2.92;;;15.80;99.90;;;;;;5111833;28;20096;-78
2023/05/01 10:57:05;;;;;;;9.27;2.70;;;15.90;99.90;;;;;;5111123;28;20073;-77
2023/05/01 11:00:02;;;;;;;7.95;2.50;;;16.00;99.90;;;;;;5111826;28;20028;-79
2023/05/01 11:02:29;;;;;;;7.18;2.60;;;16.10;99.90;;;;;;5106936;28;20032;-79
2023/05/01 11:04:55;;;;;;;6.72;2.60;;;16.20;99.90;;;;;;5111980;28;20408;-79
2023/05/01 11:07:22;;;;;;;6.82;2.40;;;16.20;99.90;;;;;;5111058;28;20395;-79
2023/05/01 11:09:53;;;;;;;8.15;2.70;;;16.20;99.90;;;;;;5110771;28;20036;-78
2023/05/01 11:12:37;;;;;;;6.38;2.20;;;16.10;99.90;;;;;;5109762;28;20054;-78
2023/05/01 11:15:07;;;;;;;7.38;2.70;;;16.00;99.90;;;;;;5111406;28;20078;-79
2023/05/01 11:17:42;;;;;;;8.30;2.60;;;16.10;99.90;;;;;;5111303;28;20050;-79
2023/05/01 11:20:09;;;;;;;7.93;2.78;;;16.10;99.90;;;;;;5112213;28;20031;-78
2023/05/01 11:22:36;;;;;;;10.63;3.25;;;16.10;99.90;;;;;;5111067;28;20492;-76
2023/05/01 11:25:03;;;;;;;6.05;2.30;;;16.30;99.90;;;;;;5111525;28;20107;-78
2023/05/01 11:27:29;;;;;;;7.40;2.90;;;16.30;99.90;;;;;;5111493;28;20034;-78
2023/05/01 11:29:58;;;;;;;7.45;2.33;;;16.40;99.90;;;;;;5111455;28;20028;-77
2023/05/01 11:32:27;;;;;;;8.95;2.30;;;16.50;99.90;;;;;;5111334;28;20582;-78
2023/05/01 11:34:53;;;;;;;6.35;2.78;;;16.60;99.90;;;;;;5111213;28;20047;-78
2023/05/01 11:37:37;;;;;;;7.63;2.40;;;16.50;99.90;;;;;;5111704;28;20059;-78
2023/05/01 11:40:03;;;;;;;7.00;2.22;;;16.60;99.90;;;;;;5111629;28;20540;-79
2023/05/01 11:42:29;;;;;;;5.70;2.70;;;16.60;99.90;;;;;;5110899;28;20020;-78
2023/05/01 11:45:11;;;;;;;5.60;2.22;;;16.60;99.90;;;;;;5112023;28;20512;-79
2023/05/01 11:47:40;;;;;;;7.25;2.40;;;16.80;99.90;;;;;;5111428;28;20031;-81
2023/05/01 11:50:08;;;;;;;5.38;1.92;;;16.80;99.90;;;;;;5112270;28;20035;-79
2023/05/01 11:52:43;;;;;;;5.63;1.92;;;16.90;99.90;;;;;;5111189;28;20041;-78
2023/05/01 11:55:10;;;;;;;7.32;2.20;;;16.80;99.90;;;;;;5110932;28;20024;-78
2023/05/01 11:57:52;;;;;;;7.03;2.30;;;16.80;99.90;;;;;;5111055;28;20040;-79
2023/05/01 12:00:36;;;;;;;5.95;2.05;;;16.90;99.90;;;;;;5111535;28;20016;-78
2023/05/01 12:03:05;;;;;;;8.05;2.25;;;17.00;99.90;;;;;;5111127;28;20059;-76
2023/05/01 12:05:33;;;;;;;5.82;2.22;;;17.00;99.90;;;;;;5114805;28;20059;-77
2023/05/01 12:08:11;;;;;;;5.32;2.00;;;17.10;99.90;;;;;;5114696;28;20028;-76
2023/05/01 12:10:39;;;;;;;9.38;2.45;;;17.00;99.90;;;;;;5114066;28;20027;-80
2023/05/01 12:13:07;;;;;;;6.68;2.33;;;17.00;99.90;;;;;;5113765;28;20047;-76
2023/05/01 12:15:38;;;;;;;4.65;1.90;;;17.20;99.90;;;;;;5114994;28;20059;-76
2023/05/01 12:18:07;;;;;;;5.68;1.75;;;17.10;99.90;;;;;;5114677;28;20030;-78
2023/05/01 12:20:41;;;;;;;6.35;2.03;;;17.10;99.90;;;;;;5114914;28;20425;-75
2023/05/01 12:23:09;;;;;;;6.68;2.00;;;17.20;99.90;;;;;;5114311;28;20040;-80
2023/05/01 12:25:38;;;;;;;4.50;1.80;;;17.30;99.90;;;;;;5113783;28;20020;-77
2023/05/01 12:28:09;;;;;;;4.38;1.92;;;17.50;99.90;;;;;;5113974;28;20506;-77
2023/05/01 12:30:35;;;;;;;8.23;2.42;;;17.50;99.90;;;;;;5113533;28;20159;-77
2023/05/01 12:33:13;;;;;;;6.38;2.30;;;17.40;99.90;;;;;;5113811;28;20122;-79
2023/05/01 12:35:40;;;;;;;7.85;2.42;;;17.50;99.90;;;;;;5113650;28;20023;-79
2023/05/01 12:38:11;;;;;;;7.82;2.08;;;17.70;99.90;;;;;;5113611;28;20024;-74
2023/05/01 12:40:38;;;;;;;6.97;2.45;;;18.00;99.90;;;;;;5113794;28;20036;-81
2023/05/01 12:43:04;;;;;;;8.02;2.17;;;17.90;99.90;;;;;;5113703;28;20028;-79
2023/05/01 12:45:36;;;;;;;7.40;2.20;;;18.10;99.90;;;;;;5114220;28;20024;-79
2023/05/01 12:48:08;;;;;;;6.88;2.22;;;18.10;99.90;;;;;;5114201;28;20028;-78
2023/05/01 12:50:37;;;;;;;7.78;2.20;;;18.20;99.90;;;;;;5113821;28;20031;-78